ITY1157 LIRF-LICR
Flight info
| Callsign | ITY1157 |
|---|---|
| Flight time | 1h 0m |
| Altitude | 37000 |
| Route | RIFFI DCT PNZ DCT NERAR DCT VACCE DCT VACCE DCT FOSQA |
| Aircraft | A20N/M-SDE2E3FGHIRWXY/LB1 |
Departure
| Time | 2026-04-15 11:00 |
|---|---|
| Airport | Rome–Fiumicino Leonardo da Vinci International Airport (LIRF) |
Arrival
| Time | 2026-04-15 12:01 |
|---|---|
| Airport | Reggio Calabria Airport (LICR) |
| Time | Latitude | Longitude | Altitude | Speed | Heading |
|---|---|---|---|---|---|
| 2026-04-15 10:30 | 41.79589 | 12.26184 | 14 ft | 0 kts | 115° |
| 2026-04-15 10:50 | 41.79590 | 12.26181 | 14 ft | 2 kts | 115° |
| 2026-04-15 10:51 | 41.79595 | 12.26165 | 14 ft | 2 kts | 116° |
| 2026-04-15 10:51 | 41.79601 | 12.26148 | 15 ft | 2 kts | 115° |
| 2026-04-15 10:51 | 41.79607 | 12.26132 | 16 ft | 2 kts | 114° |
| 2026-04-15 10:51 | 41.79612 | 12.26117 | 17 ft | 2 kts | 108° |
| 2026-04-15 10:52 | 41.79614 | 12.26108 | 17 ft | 1 kts | 92° |
| 2026-04-15 10:52 | 41.79615 | 12.26100 | 16 ft | 1 kts | 51° |
| 2026-04-15 10:52 | 41.79611 | 12.26094 | 17 ft | 1 kts | 30° |
| 2026-04-15 10:52 | 41.79606 | 12.26090 | 18 ft | 1 kts | 27° |
| 2026-04-15 10:53 | 41.79604 | 12.26088 | 18 ft | 0 kts | 26° |
| 2026-04-15 10:54 | 41.79607 | 12.26091 | 14 ft | 2 kts | 26° |
| 2026-04-15 10:55 | 41.79680 | 12.26139 | 14 ft | 18 kts | 26° |
| 2026-04-15 10:55 | 41.79724 | 12.26153 | 14 ft | 2 kts | 339° |
| 2026-04-15 10:55 | 41.79768 | 12.26133 | 14 ft | 10 kts | 8° |
| 2026-04-15 10:55 | 41.79846 | 12.26179 | 15 ft | 15 kts | 25° |
| 2026-04-15 10:56 | 41.79950 | 12.26242 | 14 ft | 18 kts | 24° |
| 2026-04-15 10:56 | 41.80067 | 12.26315 | 15 ft | 19 kts | 25° |
| 2026-04-15 10:56 | 41.80195 | 12.26394 | 15 ft | 22 kts | 25° |
| 2026-04-15 10:56 | 41.80278 | 12.26366 | 14 ft | 13 kts | 303° |
| 2026-04-15 10:57 | 41.80320 | 12.26248 | 14 ft | 15 kts | 294° |
| 2026-04-15 10:57 | 41.80505 | 12.26191 | 16 ft | 16 kts | 35° |
| 2026-04-15 10:57 | 41.80554 | 12.26335 | 16 ft | 19 kts | 70° |
| 2026-04-15 10:58 | 41.80605 | 12.26519 | 17 ft | 23 kts | 69° |
| 2026-04-15 10:58 | 41.80663 | 12.26729 | 16 ft | 25 kts | 70° |
| 2026-04-15 10:58 | 41.80717 | 12.26925 | 13 ft | 16 kts | 70° |
| 2026-04-15 10:58 | 41.80784 | 12.27043 | 13 ft | 16 kts | 6° |
| 2026-04-15 10:59 | 41.80832 | 12.27030 | 14 ft | 2 kts | 336° |
| 2026-04-15 10:59 | 41.80862 | 12.27014 | 13 ft | 8 kts | 339° |
| 2026-04-15 10:59 | 41.80927 | 12.26980 | 13 ft | 11 kts | 339° |
| 2026-04-15 10:59 | 41.80950 | 12.26896 | 12 ft | 9 kts | 251° |
| 2026-04-15 11:00 | 41.80945 | 12.26879 | 13 ft | 0 kts | 251° |
| 2026-04-15 11:00 | 41.80882 | 12.26649 | 14 ft | 71 kts | 250° |
| 2026-04-15 11:00 | 41.80616 | 12.25679 | 19 ft | 147 kts | 250° |
| 2026-04-15 11:00 | 41.80230 | 12.24293 | 736 ft | 161 kts | 249° |
| 2026-04-15 11:01 | 41.79833 | 12.22833 | 1726 ft | 174 kts | 245° |
| 2026-04-15 11:01 | 41.79447 | 12.21205 | 2452 ft | 193 kts | 250° |
| 2026-04-15 11:01 | 41.79277 | 12.19305 | 3137 ft | 214 kts | 263° |
| 2026-04-15 11:01 | 41.79233 | 12.17309 | 4368 ft | 213 kts | 264° |
| 2026-04-15 11:02 | 41.79017 | 12.15362 | 5325 ft | 211 kts | 242° |
| 2026-04-15 11:02 | 41.78156 | 12.13825 | 6312 ft | 206 kts | 219° |
| 2026-04-15 11:02 | 41.77080 | 12.12529 | 7304 ft | 207 kts | 219° |
| 2026-04-15 11:02 | 41.76024 | 12.11241 | 8274 ft | 209 kts | 220° |
| 2026-04-15 11:03 | 41.74957 | 12.09925 | 9326 ft | 208 kts | 220° |
| 2026-04-15 11:03 | 41.73883 | 12.08592 | 10259 ft | 211 kts | 220° |
| 2026-04-15 11:03 | 41.72802 | 12.07250 | 11126 ft | 215 kts | 221° |
| 2026-04-15 11:03 | 41.71679 | 12.05857 | 11876 ft | 222 kts | 221° |
| 2026-04-15 11:04 | 41.70412 | 12.04722 | 12824 ft | 221 kts | 201° |
| 2026-04-15 11:04 | 41.68879 | 12.04333 | 13549 ft | 232 kts | 181° |
| 2026-04-15 11:04 | 41.67204 | 12.04371 | 14098 ft | 249 kts | 176° |
| 2026-04-15 11:04 | 41.65482 | 12.05120 | 14415 ft | 278 kts | 151° |
| 2026-04-15 11:05 | 41.63878 | 12.06723 | 14937 ft | 292 kts | 141° |
| 2026-04-15 11:05 | 41.62412 | 12.08501 | 16209 ft | 275 kts | 140° |
| 2026-04-15 11:05 | 41.61067 | 12.10161 | 17485 ft | 260 kts | 142° |
| 2026-04-15 11:05 | 41.59712 | 12.11777 | 18305 ft | 263 kts | 142° |
| 2026-04-15 11:06 | 41.58312 | 12.13385 | 18921 ft | 266 kts | 143° |
| 2026-04-15 11:06 | 41.56903 | 12.14974 | 19656 ft | 265 kts | 143° |
| 2026-04-15 11:06 | 41.55481 | 12.16562 | 20306 ft | 268 kts | 143° |
| 2026-04-15 11:06 | 41.54033 | 12.18170 | 20898 ft | 273 kts | 143° |
| 2026-04-15 11:07 | 41.52563 | 12.19804 | 21508 ft | 277 kts | 143° |
| 2026-04-15 11:07 | 41.51077 | 12.21459 | 22152 ft | 279 kts | 143° |
| 2026-04-15 11:07 | 41.49576 | 12.23131 | 22787 ft | 282 kts | 142° |
| 2026-04-15 11:07 | 41.48077 | 12.24802 | 23369 ft | 286 kts | 142° |
| 2026-04-15 11:08 | 41.46540 | 12.26512 | 23894 ft | 289 kts | 142° |
| 2026-04-15 11:08 | 41.44990 | 12.28237 | 24409 ft | 292 kts | 142° |
| 2026-04-15 11:08 | 41.43431 | 12.29972 | 24949 ft | 292 kts | 142° |
| 2026-04-15 11:08 | 41.41858 | 12.31721 | 25436 ft | 296 kts | 142° |
| 2026-04-15 11:09 | 41.40269 | 12.33486 | 25903 ft | 298 kts | 142° |
| 2026-04-15 11:09 | 41.38672 | 12.35258 | 26418 ft | 300 kts | 142° |
| 2026-04-15 11:09 | 41.37061 | 12.37046 | 26892 ft | 302 kts | 142° |
| 2026-04-15 11:09 | 41.35459 | 12.38823 | 27348 ft | 305 kts | 142° |
| 2026-04-15 11:10 | 41.33821 | 12.40638 | 27787 ft | 308 kts | 141° |
| 2026-04-15 11:10 | 41.32167 | 12.42470 | 28205 ft | 310 kts | 142° |
| 2026-04-15 11:10 | 41.30501 | 12.44315 | 28656 ft | 313 kts | 142° |
| 2026-04-15 11:10 | 41.28813 | 12.46182 | 29017 ft | 317 kts | 142° |
| 2026-04-15 11:11 | 41.27106 | 12.48067 | 29416 ft | 320 kts | 142° |
| 2026-04-15 11:11 | 41.25386 | 12.49968 | 29867 ft | 321 kts | 142° |
| 2026-04-15 11:11 | 41.23658 | 12.51876 | 30232 ft | 324 kts | 142° |
| 2026-04-15 11:11 | 41.21952 | 12.53863 | 30576 ft | 327 kts | 136° |
| 2026-04-15 11:12 | 41.20357 | 12.56050 | 30902 ft | 331 kts | 135° |
| 2026-04-15 11:12 | 41.18774 | 12.58227 | 31267 ft | 332 kts | 136° |
| 2026-04-15 11:12 | 41.17160 | 12.60441 | 31581 ft | 335 kts | 136° |
| 2026-04-15 11:12 | 41.15532 | 12.62667 | 31903 ft | 338 kts | 136° |
| 2026-04-15 11:13 | 41.13886 | 12.64912 | 32222 ft | 340 kts | 136° |
| 2026-04-15 11:13 | 41.12232 | 12.67168 | 32561 ft | 342 kts | 136° |
| 2026-04-15 11:13 | 41.10563 | 12.69441 | 32815 ft | 346 kts | 136° |
| 2026-04-15 11:13 | 41.08877 | 12.71736 | 33133 ft | 348 kts | 136° |
| 2026-04-15 11:14 | 41.07187 | 12.74035 | 33475 ft | 349 kts | 136° |
| 2026-04-15 11:14 | 41.05486 | 12.76347 | 33724 ft | 353 kts | 136° |
| 2026-04-15 11:14 | 41.03760 | 12.78693 | 33931 ft | 357 kts | 136° |
| 2026-04-15 11:14 | 41.02024 | 12.81050 | 34186 ft | 358 kts | 136° |
| 2026-04-15 11:15 | 41.00278 | 12.83418 | 34439 ft | 360 kts | 136° |
| 2026-04-15 11:15 | 40.98520 | 12.85800 | 34646 ft | 363 kts | 136° |
| 2026-04-15 11:15 | 40.96747 | 12.88199 | 34854 ft | 366 kts | 136° |
| 2026-04-15 11:15 | 40.94964 | 12.90610 | 35083 ft | 367 kts | 136° |
| 2026-04-15 11:16 | 40.93172 | 12.93033 | 35307 ft | 369 kts | 136° |
| 2026-04-15 11:16 | 40.91296 | 12.95365 | 35522 ft | 370 kts | 142° |
| 2026-04-15 11:16 | 40.89249 | 12.97374 | 35720 ft | 371 kts | 149° |
| 2026-04-15 11:16 | 40.87053 | 12.99194 | 35889 ft | 374 kts | 149° |
| 2026-04-15 11:17 | 40.84841 | 13.01029 | 36088 ft | 376 kts | 149° |
| 2026-04-15 11:17 | 40.82622 | 13.02880 | 36293 ft | 378 kts | 149° |
| 2026-04-15 11:17 | 40.80399 | 13.04740 | 36532 ft | 378 kts | 149° |
| 2026-04-15 11:17 | 40.78168 | 13.06604 | 36727 ft | 380 kts | 149° |
| 2026-04-15 11:18 | 40.75921 | 13.08478 | 36892 ft | 383 kts | 149° |
| 2026-04-15 11:18 | 40.73654 | 13.10367 | 36974 ft | 388 kts | 149° |
| 2026-04-15 11:18 | 40.69007 | 13.14232 | 36979 ft | 402 kts | 149° |
| 2026-04-15 11:19 | 40.64226 | 13.18204 | 36977 ft | 416 kts | 149° |
| 2026-04-15 11:19 | 40.59245 | 13.22334 | 36972 ft | 429 kts | 149° |
| 2026-04-15 11:20 | 40.54114 | 13.26581 | 36965 ft | 438 kts | 149° |
| 2026-04-15 11:20 | 40.48958 | 13.30844 | 36964 ft | 437 kts | 149° |
| 2026-04-15 11:21 | 40.44679 | 13.34373 | 36963 ft | 438 kts | 149° |
| 2026-04-15 11:21 | 40.38668 | 13.39322 | 36967 ft | 438 kts | 149° |
| 2026-04-15 11:22 | 40.33504 | 13.43565 | 36955 ft | 438 kts | 149° |
| 2026-04-15 11:22 | 40.29200 | 13.47096 | 36960 ft | 438 kts | 149° |
| 2026-04-15 11:23 | 40.24019 | 13.51338 | 36959 ft | 439 kts | 149° |
| 2026-04-15 11:23 | 40.18830 | 13.55579 | 36951 ft | 439 kts | 149° |
| 2026-04-15 11:24 | 40.13676 | 13.59785 | 36967 ft | 439 kts | 149° |
| 2026-04-15 11:24 | 40.08487 | 13.64001 | 36951 ft | 436 kts | 147° |
| 2026-04-15 11:25 | 40.03306 | 13.68206 | 36952 ft | 442 kts | 147° |
| 2026-04-15 11:25 | 39.98088 | 13.72441 | 36952 ft | 443 kts | 147° |
| 2026-04-15 11:26 | 39.92934 | 13.76612 | 36955 ft | 433 kts | 147° |
| 2026-04-15 11:26 | 39.87779 | 13.80785 | 36953 ft | 440 kts | 147° |
| 2026-04-15 11:27 | 39.82609 | 13.84959 | 36949 ft | 435 kts | 147° |
| 2026-04-15 11:27 | 39.80027 | 13.87044 | 36796 ft | 438 kts | 148° |
| 2026-04-15 11:27 | 39.77439 | 13.89133 | 36534 ft | 437 kts | 148° |
| 2026-04-15 11:28 | 39.74889 | 13.91186 | 36282 ft | 435 kts | 148° |
| 2026-04-15 11:28 | 39.72314 | 13.93256 | 36036 ft | 435 kts | 148° |
| 2026-04-15 11:28 | 39.69740 | 13.95323 | 35785 ft | 435 kts | 148° |
| 2026-04-15 11:28 | 39.67157 | 13.97396 | 35536 ft | 436 kts | 148° |
| 2026-04-15 11:29 | 39.64568 | 13.99472 | 35302 ft | 437 kts | 148° |
| 2026-04-15 11:29 | 39.61984 | 14.01542 | 35079 ft | 435 kts | 148° |
| 2026-04-15 11:29 | 39.59407 | 14.03605 | 34836 ft | 436 kts | 148° |
| 2026-04-15 11:29 | 39.56851 | 14.05649 | 34605 ft | 436 kts | 148° |
| 2026-04-15 11:30 | 39.54269 | 14.07712 | 34367 ft | 435 kts | 148° |
| 2026-04-15 11:30 | 39.51689 | 14.09771 | 34132 ft | 435 kts | 147° |
| 2026-04-15 11:30 | 39.49113 | 14.11825 | 33897 ft | 434 kts | 147° |
| 2026-04-15 11:30 | 39.46541 | 14.13875 | 33627 ft | 433 kts | 148° |
| 2026-04-15 11:31 | 39.43972 | 14.15921 | 33357 ft | 432 kts | 148° |
| 2026-04-15 11:31 | 39.41418 | 14.17954 | 33083 ft | 431 kts | 148° |
| 2026-04-15 11:31 | 39.38866 | 14.19984 | 32814 ft | 430 kts | 148° |
| 2026-04-15 11:31 | 39.36313 | 14.22015 | 32220 ft | 431 kts | 149° |
| 2026-04-15 11:32 | 39.33780 | 14.24032 | 31608 ft | 428 kts | 149° |
| 2026-04-15 11:32 | 39.31329 | 14.26154 | 30776 ft | 429 kts | 144° |
| 2026-04-15 11:32 | 39.29060 | 14.28645 | 30172 ft | 425 kts | 139° |
| 2026-04-15 11:32 | 39.27027 | 14.31369 | 29555 ft | 418 kts | 135° |
| 2026-04-15 11:33 | 39.25079 | 14.34084 | 28995 ft | 404 kts | 136° |
| 2026-04-15 11:33 | 39.23205 | 14.36686 | 28478 ft | 390 kts | 136° |
| 2026-04-15 11:33 | 39.21367 | 14.39226 | 27940 ft | 384 kts | 136° |
| 2026-04-15 11:33 | 39.19559 | 14.41718 | 27430 ft | 377 kts | 136° |
| 2026-04-15 11:34 | 39.17777 | 14.44170 | 26927 ft | 371 kts | 136° |
| 2026-04-15 11:34 | 39.16024 | 14.46582 | 26429 ft | 366 kts | 136° |
| 2026-04-15 11:34 | 39.14293 | 14.48963 | 25932 ft | 361 kts | 135° |
| 2026-04-15 11:34 | 39.12604 | 14.51282 | 25449 ft | 357 kts | 135° |
| 2026-04-15 11:35 | 39.10894 | 14.53628 | 24993 ft | 367 kts | 136° |
| 2026-04-15 11:35 | 39.09118 | 14.56057 | 24816 ft | 373 kts | 136° |
| 2026-04-15 11:35 | 39.07340 | 14.58494 | 24459 ft | 374 kts | 136° |
| 2026-04-15 11:35 | 39.05547 | 14.60952 | 23695 ft | 379 kts | 135° |
| 2026-04-15 11:36 | 39.03716 | 14.63457 | 22627 ft | 387 kts | 135° |
| 2026-04-15 11:36 | 39.01902 | 14.65940 | 21948 ft | 383 kts | 135° |
| 2026-04-15 11:36 | 39.00099 | 14.68408 | 21561 ft | 372 kts | 135° |
| 2026-04-15 11:36 | 38.98353 | 14.70795 | 21214 ft | 358 kts | 135° |
| 2026-04-15 11:37 | 38.96673 | 14.73091 | 20729 ft | 347 kts | 135° |
| 2026-04-15 11:37 | 38.95039 | 14.75319 | 20245 ft | 339 kts | 135° |
| 2026-04-15 11:37 | 38.93423 | 14.77520 | 19761 ft | 335 kts | 135° |
| 2026-04-15 11:37 | 38.91834 | 14.79682 | 19292 ft | 331 kts | 135° |
| 2026-04-15 11:38 | 38.90275 | 14.81803 | 18810 ft | 328 kts | 135° |
| 2026-04-15 11:38 | 38.88712 | 14.83927 | 18339 ft | 325 kts | 135° |
| 2026-04-15 11:38 | 38.87162 | 14.86033 | 17839 ft | 323 kts | 135° |
| 2026-04-15 11:38 | 38.85594 | 14.88160 | 17360 ft | 341 kts | 135° |
| 2026-04-15 11:39 | 38.83910 | 14.90440 | 16851 ft | 359 kts | 135° |
| 2026-04-15 11:39 | 38.82174 | 14.92793 | 16304 ft | 364 kts | 135° |
| 2026-04-15 11:39 | 38.80435 | 14.95153 | 15787 ft | 363 kts | 135° |
| 2026-04-15 11:39 | 38.78714 | 14.97486 | 15256 ft | 357 kts | 135° |
| 2026-04-15 11:40 | 38.77021 | 14.99779 | 14739 ft | 351 kts | 135° |
| 2026-04-15 11:40 | 38.75357 | 15.02030 | 14232 ft | 346 kts | 134° |
| 2026-04-15 11:40 | 38.73733 | 15.04224 | 13737 ft | 341 kts | 134° |
| 2026-04-15 11:40 | 38.72123 | 15.06399 | 13214 ft | 330 kts | 134° |
| 2026-04-15 11:41 | 38.70568 | 15.08487 | 12745 ft | 320 kts | 136° |
| 2026-04-15 11:41 | 38.68924 | 15.10350 | 12287 ft | 309 kts | 141° |
| 2026-04-15 11:41 | 38.67281 | 15.12102 | 11829 ft | 306 kts | 141° |
| 2026-04-15 11:41 | 38.65662 | 15.13842 | 11383 ft | 302 kts | 140° |
| 2026-04-15 11:42 | 38.64061 | 15.15565 | 10930 ft | 299 kts | 140° |
| 2026-04-15 11:42 | 38.62471 | 15.17276 | 10506 ft | 297 kts | 140° |
| 2026-04-15 11:42 | 38.60892 | 15.18973 | 10242 ft | 295 kts | 140° |
| 2026-04-15 11:42 | 38.59345 | 15.20634 | 10168 ft | 285 kts | 140° |
| 2026-04-15 11:43 | 38.57866 | 15.22222 | 9986 ft | 277 kts | 140° |
| 2026-04-15 11:43 | 38.56420 | 15.23773 | 9909 ft | 270 kts | 141° |
| 2026-04-15 11:43 | 38.54966 | 15.25330 | 9898 ft | 273 kts | 141° |
| 2026-04-15 11:43 | 38.53510 | 15.26888 | 9898 ft | 273 kts | 141° |
| 2026-04-15 11:44 | 38.52053 | 15.28446 | 9896 ft | 273 kts | 141° |
| 2026-04-15 11:44 | 38.50598 | 15.30005 | 9892 ft | 274 kts | 141° |
| 2026-04-15 11:44 | 38.49141 | 15.31565 | 9897 ft | 274 kts | 141° |
| 2026-04-15 11:44 | 38.47682 | 15.33126 | 9900 ft | 273 kts | 141° |
| 2026-04-15 11:45 | 38.46224 | 15.34683 | 9895 ft | 273 kts | 141° |
| 2026-04-15 11:45 | 38.44698 | 15.36112 | 9904 ft | 272 kts | 153° |
| 2026-04-15 11:45 | 38.42979 | 15.37072 | 9903 ft | 272 kts | 158° |
| 2026-04-15 11:45 | 38.41411 | 15.38391 | 9906 ft | 274 kts | 131° |
| 2026-04-15 11:46 | 38.40394 | 15.40465 | 9902 ft | 278 kts | 119° |
| 2026-04-15 11:46 | 38.39578 | 15.42695 | 9900 ft | 278 kts | 116° |
| 2026-04-15 11:46 | 38.38810 | 15.44950 | 9899 ft | 278 kts | 116° |
| 2026-04-15 11:46 | 38.38029 | 15.47205 | 9896 ft | 277 kts | 120° |
| 2026-04-15 11:47 | 38.36886 | 15.49146 | 9887 ft | 273 kts | 139° |
| 2026-04-15 11:47 | 38.35286 | 15.50428 | 9412 ft | 272 kts | 155° |
| 2026-04-15 11:47 | 38.33578 | 15.51384 | 9036 ft | 263 kts | 157° |
| 2026-04-15 11:47 | 38.31911 | 15.52255 | 8680 ft | 256 kts | 158° |
| 2026-04-15 11:48 | 38.30266 | 15.53094 | 8323 ft | 253 kts | 158° |
| 2026-04-15 11:48 | 38.28661 | 15.53912 | 7975 ft | 250 kts | 158° |
| 2026-04-15 11:48 | 38.27042 | 15.54736 | 7796 ft | 257 kts | 158° |
| 2026-04-15 11:48 | 38.25366 | 15.55583 | 7668 ft | 257 kts | 158° |
| 2026-04-15 11:49 | 38.23705 | 15.56420 | 7536 ft | 255 kts | 158° |
| 2026-04-15 11:49 | 38.22043 | 15.57259 | 7409 ft | 259 kts | 158° |
| 2026-04-15 11:49 | 38.20367 | 15.58106 | 7285 ft | 256 kts | 158° |
| 2026-04-15 11:49 | 38.18715 | 15.58941 | 7162 ft | 256 kts | 158° |
| 2026-04-15 11:50 | 38.17062 | 15.59776 | 7035 ft | 255 kts | 158° |
| 2026-04-15 11:50 | 38.15412 | 15.60609 | 6735 ft | 255 kts | 158° |
| 2026-04-15 11:50 | 38.13783 | 15.61431 | 6391 ft | 249 kts | 157° |
| 2026-04-15 11:50 | 38.12202 | 15.62229 | 6081 ft | 245 kts | 157° |
| 2026-04-15 11:51 | 38.10588 | 15.63044 | 6006 ft | 247 kts | 157° |
| 2026-04-15 11:51 | 38.09035 | 15.63826 | 6000 ft | 232 kts | 157° |
| 2026-04-15 11:51 | 38.07548 | 15.64447 | 5932 ft | 220 kts | 165° |
| 2026-04-15 11:51 | 38.06060 | 15.64676 | 5828 ft | 212 kts | 174° |
| 2026-04-15 11:52 | 38.04621 | 15.64768 | 5705 ft | 203 kts | 174° |
| 2026-04-15 11:52 | 38.03254 | 15.64861 | 5611 ft | 191 kts | 173° |
| 2026-04-15 11:52 | 38.01961 | 15.64961 | 5507 ft | 183 kts | 173° |
| 2026-04-15 11:52 | 38.00699 | 15.65069 | 5337 ft | 182 kts | 172° |
| 2026-04-15 11:53 | 37.99443 | 15.65180 | 5196 ft | 180 kts | 172° |
| 2026-04-15 11:53 | 37.98201 | 15.65292 | 5043 ft | 181 kts | 172° |
| 2026-04-15 11:53 | 37.96945 | 15.65405 | 4865 ft | 181 kts | 172° |
| 2026-04-15 11:53 | 37.95697 | 15.65516 | 4712 ft | 179 kts | 172° |
| 2026-04-15 11:54 | 37.94462 | 15.65641 | 4480 ft | 178 kts | 171° |
| 2026-04-15 11:54 | 37.93259 | 15.65766 | 4388 ft | 164 kts | 171° |
| 2026-04-15 11:54 | 37.92165 | 15.65870 | 4296 ft | 151 kts | 170° |
| 2026-04-15 11:54 | 37.91160 | 15.65961 | 4211 ft | 138 kts | 170° |
| 2026-04-15 11:55 | 37.90227 | 15.66046 | 4055 ft | 132 kts | 170° |
| 2026-04-15 11:55 | 37.89307 | 15.66134 | 3803 ft | 133 kts | 170° |
| 2026-04-15 11:55 | 37.88385 | 15.65929 | 3502 ft | 146 kts | 208° |
| 2026-04-15 11:55 | 37.87837 | 15.64832 | 3256 ft | 161 kts | 257° |
| 2026-04-15 11:56 | 37.88103 | 15.63475 | 3058 ft | 162 kts | 309° |
| 2026-04-15 11:56 | 37.88979 | 15.62598 | 3049 ft | 166 kts | 332° |
| 2026-04-15 11:56 | 37.89995 | 15.61919 | 3040 ft | 163 kts | 338° |
| 2026-04-15 11:56 | 37.91062 | 15.61484 | 3044 ft | 160 kts | 354° |
| 2026-04-15 11:57 | 37.92169 | 15.61412 | 3040 ft | 160 kts | 9° |
| 2026-04-15 11:57 | 37.94311 | 15.61976 | 3040 ft | 157 kts | 25° |
| 2026-04-15 11:57 | 37.95329 | 15.62419 | 2948 ft | 155 kts | 26° |
| 2026-04-15 11:58 | 37.96345 | 15.62859 | 2787 ft | 153 kts | 25° |
| 2026-04-15 11:58 | 37.97350 | 15.63298 | 2547 ft | 153 kts | 25° |
| 2026-04-15 11:58 | 37.98343 | 15.63730 | 2407 ft | 144 kts | 26° |
| 2026-04-15 11:58 | 37.99269 | 15.64138 | 2225 ft | 140 kts | 26° |
| 2026-04-15 11:59 | 38.00177 | 15.64534 | 2060 ft | 134 kts | 30° |
| 2026-04-15 11:59 | 38.01057 | 15.64919 | 1831 ft | 135 kts | 31° |
| 2026-04-15 11:59 | 38.01948 | 15.65305 | 1742 ft | 134 kts | 30° |
| 2026-04-15 11:59 | 38.02829 | 15.65677 | 1577 ft | 138 kts | 28° |
| 2026-04-15 12:00 | 38.03731 | 15.65995 | 1508 ft | 134 kts | 27° |
| 2026-04-15 12:00 | 38.04643 | 15.66251 | 1215 ft | 146 kts | 359° |
| 2026-04-15 12:00 | 38.05715 | 15.66087 | 575 ft | 158 kts | 328° |
| 2026-04-15 12:00 | 38.06656 | 15.65477 | 102 ft | 143 kts | 329° |
| 2026-04-15 12:01 | 38.07422 | 15.64964 | 53 ft | 92 kts | 333° |
| 2026-04-15 12:01 | 38.07830 | 15.64698 | 60 ft | 56 kts | 333° |
| 2026-04-15 12:01 | 38.08004 | 15.64607 | 68 ft | 8 kts | 316° |
| 2026-04-15 12:01 | 38.07995 | 15.64589 | 73 ft | 3 kts | 188° |
| 2026-04-15 12:02 | 38.07937 | 15.64628 | 72 ft | 16 kts | 152° |
| 2026-04-15 12:02 | 38.07811 | 15.64714 | 62 ft | 25 kts | 154° |
| 2026-04-15 12:02 | 38.07635 | 15.64825 | 60 ft | 31 kts | 153° |
| 2026-04-15 12:02 | 38.07554 | 15.64877 | 52 ft | 12 kts | 153° |
| 2026-04-15 12:03 | 38.07442 | 15.64949 | 54 ft | 23 kts | 152° |
| 2026-04-15 12:03 | 38.07295 | 15.65053 | 48 ft | 6 kts | 121° |
| 2026-04-15 12:03 | 38.07298 | 15.65126 | 48 ft | 13 kts | 64° |
| 2026-04-15 12:03 | 38.07348 | 15.65244 | 48 ft | 7 kts | 64° |
| 2026-04-15 12:04 | 38.07362 | 15.65279 | 48 ft | 9 kts | 62° |
| 2026-04-15 12:04 | 38.07367 | 15.65298 | 49 ft | 1 kts | 85° |
| 2026-04-15 12:04 | 38.07360 | 15.65307 | 49 ft | 0 kts | 136° |